Latest Weather Observations for Gelantipy

IDV60801

Issued at 11:33 am EDT Sunday 26 February 2017 (issued every 30 minutes, with the page automatically refreshed every 10 minutes)

About weather observations | Map of weather stations | Latest weather observations for VIC | Other Formats
Station Details ID: 084142 Name: GELANTIPY Lat: -37.22 Lon: 148.26 Height: 755.0 m
Data from the previous 72 hours. | See also: Recent months at Gelantipy
Date/Time
EDT
Temp
°C
App
Temp
°C
Dew
Point
°C
Rel
Hum
%
Delta-T
°C
Wind Press
QNH
hPa
Press
MSL
hPa
Rain since
9am
mm
Dir  Spd
km/h
Gust
km/h
Spd
kts
Gust
kts
26/11:30am 18.0 14.7 9.6 58 4.6 NE 17 32 9 17 1024.7 1022.0 0.0
26/11:00am 16.3 12.4 9.3 63 3.8 NE 20 32 11 17 1024.8 1022.1 0.0
26/10:30am 16.2 12.9 9.4 64 3.7 NNE 17 28 9 15 1025.1 1022.5 0.0
26/10:00am 15.5 11.2 9.2 66 3.4 NNE 22 30 12 16 1025.0 1022.4 0.0
26/09:30am 14.5 9.8 9.1 70 2.9 NNE 24 35 13 19 1024.9 1022.2 0.0
26/09:00am 14.2 9.5 9.2 72 2.6 NNE 24 33 13 18 1024.6 1021.9 0.0
26/08:30am 13.3 9.9 9.0 75 2.3 NE 17 26 9 14 1024.6 1021.9 0.0
26/08:00am 12.1 9.4 8.9 81 1.7 NE 13 20 7 11 1024.4 1021.7 0.0
26/07:30am 10.8 8.3 8.4 85 1.2 NE 11 17 6 9 1024.4 1021.7 0.0
26/07:00am 10.5 7.3 8.3 86 1.1 NE 15 20 8 11 1023.6 1020.9 0.0
26/06:30am 10.4 7.5 8.0 85 1.2 NE 13 22 7 12 1023.3 1020.6 0.0
26/06:00am 10.6 7.2 7.8 83 1.4 NE 15 19 8 10 1023.1 1020.4 0.0
26/05:30am 10.3 7.3 7.7 84 1.3 NE 13 20 7 11 1023.0 1020.3 0.0
26/05:00am 10.4 7.4 7.6 83 1.4 NE 13 20 7 11 1023.1 1020.4 0.0
26/04:30am 10.7 6.9 7.6 81 1.6 NE 17 28 9 15 1023.1 1020.4 0.0
26/04:00am 10.9 7.9 7.8 81 1.6 NE 13 20 7 11 1023.3 1020.6 0.0
26/03:30am 11.0 7.7 8.2 83 1.4 NE 15 22 8 12 1023.2 1020.5 0.0
26/03:00am 11.5 8.8 9.1 85 1.2 NE 13 20 7 11 1023.3 1020.6 0.0
26/02:30am 11.4 7.0 9.0 85 1.2 NE 22 33 12 18 1023.4 1020.7 0.0
26/02:00am 11.6 7.3 9.2 85 1.2 NNE 22 30 12 16 1023.5 1020.8 0.0
26/01:30am 11.5 7.5 9.2 86 1.2 NNE 20 30 11 16 1023.7 1021.0 0.0
26/01:00am 12.0 8.0 9.2 83 1.5 NNE 20 28 11 15 1023.8 1021.1 0.0
26/12:30am 13.1 9.9 9.9 81 1.7 NE 17 26 9 14 1024.1 1021.4 0.0
26/12:00am 13.4 11.5 10.6 83 1.5 ENE 11 24 6 13 1024.2 1021.5 0.0
 
Date/Time
EDT
Temp
°C
App
Temp
°C
Dew
Point
°C
Rel
Hum
%
Delta-T
°C
Wind Press
QNH
hPa
Press
MSL
hPa
Rain since
9am
mm
Dir  Spd
km/h
Gust
km/h
Spd
kts
Gust
kts
25/11:30pm 13.7 12.8 11.2 85 1.4 ENE 7 13 4 7 1023.9 1021.3 0.0
25/11:00pm 13.3 13.8 11.5 89 1.0 CALM 0 7 0 4 1024.1 1021.4 0.0
25/10:30pm 13.4 13.8 11.1 86 1.3 CALM 0 6 0 3 1023.9 1021.3 0.0
25/10:00pm 13.6 12.3 11.3 86 1.3 NNE 9 11 5 6 1023.6 1020.9 0.0
25/09:30pm 13.8 12.9 11.3 85 1.4 ENE 7 13 4 7 1023.7 1021.0 0.0
25/09:00pm 13.9 13.0 11.2 84 1.5 SE 7 9 4 5 1023.5 1020.8 0.0
25/08:30pm 14.1 12.5 11.4 84 1.5 ESE 11 17 6 9 1023.2 1020.5 0.0
25/08:00pm 14.4 13.1 11.2 81 1.8 E 9 17 5 9 1022.9 1020.2 0.0
25/07:30pm 14.7 12.6 11.3 80 1.9 ESE 13 19 7 10 1022.5 1019.8 0.0
25/07:00pm 15.1 13.0 11.1 77 2.2 ESE 13 17 7 9 1022.2 1019.5 0.0
25/06:30pm 15.6 13.8 11.0 74 2.5 ESE 11 17 6 9 1022.1 1019.4 0.0
25/06:00pm 15.9 13.8 11.1 73 2.7 ENE 13 20 7 11 1021.9 1019.2 0.0
25/05:30pm 16.5 14.2 10.6 68 3.3 N 13 17 7 9 1021.9 1019.2 0.0
25/05:00pm 17.2 15.6 10.3 64 3.8 N 9 13 5 7 1021.9 1019.2 0.0
25/04:30pm 17.0 15.3 9.9 63 3.9 N 9 15 5 8 1022.1 1019.4 0.0
25/04:00pm 16.9 14.4 9.6 62 4.0 NNE 13 20 7 11 1022.2 1019.5 0.0
25/03:30pm 17.2 14.9 9.1 59 4.4 NNE 11 19 6 10 1022.4 1019.7 0.0
25/03:00pm 17.0 14.6 8.7 58 4.4 N 11 15 6 8 1022.8 1020.1 0.0
25/02:30pm 17.5 14.6 8.1 54 5.0 NE 13 20 7 11 1023.1 1020.4 0.0
25/02:00pm 18.0 15.6 8.8 55 4.9 N 11 19 6 10 1023.1 1020.4 0.0
25/01:30pm 17.1 14.2 8.3 56 4.7 N 13 20 7 11 1023.4 1020.7 0.0
25/01:00pm 16.7 13.4 8.1 57 4.5 NE 15 22 8 12 1023.7 1021.0 0.0
25/12:30pm 15.6 13.0 7.9 60 4.0 NNE 11 24 6 13 1024.2 1021.5 0.0
25/12:00pm 15.4 13.7 8.2 62 3.8 NE 7 17 4 9 1024.5 1021.8 0.0
25/11:30am 12.9 10.6 7.6 70 2.7 NNE 9 13 5 7 1024.7 1022.0 0.0
25/11:00am 13.0 10.9 8.3 73 2.4 NNE 9 15 5 8 1024.7 1022.0 0.0
25/10:30am 11.7 9.8 7.4 75 2.2 N 7 11 4 6 1024.8 1022.1 0.0
25/10:00am 11.1 9.3 7.2 77 1.9 N 6 11 3 6 1025.0 1022.4 0.0
25/09:30am 10.8 10.2 7.3 79 1.7 CALM 0 0 0 0 1024.8 1022.1 0.0
25/09:00am 10.4 9.3 6.9 79 1.7 N 2 9 1 5 1024.6 1021.9 0.0
25/08:30am 10.3 9.6 6.8 79 1.7 CALM 0 0 0 0 1024.5 1021.8 0.0
25/08:00am 10.0 9.4 7.4 84 1.3 CALM 0 0 0 0 1024.2 1021.5 0.0
25/07:30am 9.5 8.9 7.3 86 1.1 CALM 0 0 0 0 1024.2 1021.5 0.0
25/07:00am 9.4 7.7 7.5 88 0.9 W 6 7 3 4 1024.1 1021.4 0.0
25/06:30am 9.4 7.6 7.2 86 1.1 WNW 6 7 3 4 1023.9 1021.3 0.0
25/06:00am 9.3 8.2 7.1 86 1.1 SSW 2 6 1 3 1023.9 1021.3 0.0
25/05:30am 9.4 7.6 7.2 86 1.1 SSW 6 46 3 25 1023.8 1021.1 0.0
25/05:00am 9.4 7.6 7.0 85 1.2 S 6 9 3 5 1023.5 1020.8 0.0
25/04:30am 9.5 7.7 7.3 86 1.1 S 6 9 3 5 1023.4 1020.7 0.0
25/04:00am 9.6 7.9 7.4 86 1.1 S 6 9 3 5 1023.5 1020.8 0.0
25/03:30am 9.8 7.9 7.6 86 1.1 S 7 9 4 5 1023.6 1020.9 0.0
25/03:00am 9.9 8.2 7.7 86 1.1 SSW 6 9 3 5 1023.6 1020.9 0.0
25/02:30am 10.0 8.3 7.6 85 1.2 SSW 6 9 3 5 1023.8 1021.1 0.0
25/02:00am 10.1 8.2 7.7 85 1.2 SSW 7 9 4 5 1024.2 1021.5 0.0
25/01:30am 10.2 8.5 8.3 88 1.0 SSW 7 9 4 5 1024.4 1021.7 0.0
25/01:00am 10.3 8.9 8.7 90 0.8 SSW 6 9 3 5 1024.6 1021.9 0.0
25/12:30am 10.4 8.9 9.2 92 0.6 SSW 7 11 4 6 1024.7 1022.0 0.0
25/12:00am 10.5 9.2 9.1 91 0.7 S 6 11 3 6 1024.9 1022.2 0.0
 
Date/Time
EDT
Temp
°C
App
Temp
°C
Dew
Point
°C
Rel
Hum
%
Delta-T
°C
Wind Press
QNH
hPa
Press
MSL
hPa
Rain since
9am
mm
Dir  Spd
km/h
Gust
km/h
Spd
kts
Gust
kts
24/11:30pm 10.6 10.4 9.0 90 0.8 CALM 0 0 0 0 1025.0 1022.4 0.0
24/11:00pm 10.7 9.4 9.1 90 0.8 S 6 7 3 4 1025.1 1022.5 0.0
24/10:30pm 10.8 9.5 9.1 89 0.9 SSW 6 9 3 5 1025.4 1022.8 0.0
24/10:00pm 10.9 9.4 9.0 88 1.0 S 7 13 4 7 1025.4 1022.8 0.0
24/09:30pm 11.0 9.5 9.3 89 0.9 S 7 11 4 6 1025.4 1022.8 0.0
24/09:00pm 11.2 9.8 9.5 89 0.9 S 7 11 4 6 1025.2 1022.6 0.0
24/08:30pm 11.3 9.2 9.9 91 0.7 S 11 17 6 9 1024.9 1022.2 0.0
24/08:00pm 11.7 10.1 10.3 91 0.7 S 9 15 5 8 1024.6 1021.9 0.0
24/07:30pm 11.8 9.8 10.2 90 0.9 SSW 11 19 6 10 1024.4 1021.7 0.0
24/07:00pm 11.9 10.1 10.8 93 0.6 SSW 11 19 6 10 1024.1 1021.4 0.0
24/06:30pm 11.8 10.2 11.5 98 0.2 SSW 11 19 6 10 1023.8 1021.1 0.0
24/06:00pm 11.6 9.6 11.6 100 0.0 S 13 20 7 11 1023.6 1020.9 0.0
24/05:30pm 11.8 9.9 11.8 100 0.0 N 13 28 7 15 1023.4 1020.7 0.0
24/05:00pm 12.1 10.7 12.1 100 0.0 SSW 11 19 6 10 1023.1 1020.4 0.0
24/04:30pm 12.4 10.6 12.1 98 0.2 SSW 13 20 7 11 1023.0 1020.3 0.0
24/04:00pm 13.4 11.7 12.6 95 0.5 SSW 13 20 7 11 1022.9 1020.2 0.0
24/03:30pm 13.7 11.7 12.8 94 0.5 SSW 15 22 8 12 1022.8 1020.1 0.0
24/03:00pm 15.3 13.6 12.4 83 1.6 SSE 13 20 7 11 1022.9 1020.2 0.0
24/02:30pm 16.0 14.4 12.9 82 1.8 N 13 19 7 10 1022.9 1020.2 0.0
24/02:00pm 16.0 14.0 12.7 81 1.9 SSW 15 22 8 12 1023.0 1020.3 0.0
24/01:30pm 16.3 14.3 12.8 80 2.0 N 15 22 8 12 1023.0 1020.3 0.0
24/01:00pm 17.1 16.1 13.4 79 2.2 SSE 11 20 6 11 1023.0 1020.3 0.0
24/12:30pm 15.6 14.2 13.3 86 1.3 S 13 20 7 11 1023.3 1020.6 0.0
24/12:00pm 15.4 13.8 12.7 84 1.5 E 13 19 7 10 1023.6 1020.9 0.0
24/11:30am 14.9 13.7 12.8 87 1.2 E 11 15 6 8 1023.7 1021.0 0.0
24/11:00am 14.6 13.7 12.6 88 1.1 S 9 13 5 7 1023.8 1021.1 0.0
24/10:30am 14.1 13.4 12.1 88 1.1 S 7 13 4 7 1023.9 1021.3 0.0
24/10:00am 14.4 13.9 11.9 85 1.4 S 6 9 3 5 1023.8 1021.1 0.0
24/09:30am 14.1 13.6 12.0 87 1.2 S 6 11 3 6 1023.7 1021.0 0.0
24/09:00am 13.8 13.2 11.8 88 1.1 S 6 7 3 4 1023.5 1020.8 0.0
24/08:30am 13.6 14.1 11.7 88 1.1 CALM 0 0 0 0 1023.4 1020.7 0.0
24/08:00am 13.1 13.6 11.5 90 0.9 CALM 0 0 0 0 1023.3 1020.6 0.0
24/07:30am 12.9 13.4 11.5 91 0.8 CALM 0 0 0 0 1023.1 1020.4 0.0
24/07:00am 12.8 13.2 11.4 91 0.8 CALM 0 0 0 0 1022.8 1020.1 0.0
24/06:30am 12.7 13.1 11.3 91 0.8 CALM 0 0 0 0 1022.7 1019.9 0.0
24/06:00am 12.6 13.0 11.2 91 0.8 CALM 0 0 0 0 1022.5 1019.8 0.0
24/05:30am 12.6 13.0 11.2 91 0.8 CALM 0 0 0 0 1022.4 1019.7 0.0
24/05:00am 12.5 12.9 11.4 93 0.6 CALM 0 0 0 0 1022.3 1019.6 0.0
24/04:30am 12.5 11.8 11.4 93 0.6 WNW 6 6 3 3 1022.2 1019.5 0.0
24/04:00am 12.1 12.6 11.6 97 0.3 CALM 0 0 0 0 1022.3 1019.6 0.0
24/03:30am 11.5 11.9 11.2 98 0.2 CALM 0 0 0 0 1022.4 1019.7 0.0
24/03:00am 11.3 11.6 11.0 98 0.2 CALM 0 0 0 0 1022.4 1019.7 0.0
24/02:30am 10.7 10.9 10.4 98 0.2 CALM 0 0 0 0 1022.4 1019.7 0.0
24/02:00am 10.4 10.4 9.9 97 0.3 CALM 0 0 0 0 1022.5 1019.8 0.0
24/01:30am 11.4 11.8 11.1 98 0.2 CALM 0 0 0 0 1022.7 1019.9 0.0
24/01:00am 11.1 11.2 10.3 95 0.4 CALM 0 0 0 0 1022.8 1020.1 0.0
24/12:30am 11.7 12.0 10.9 95 0.4 CALM 0 0 0 0 1022.5 1019.8 0.0
24/12:00am 11.7 12.0 10.8 94 0.5 CALM 0 0 0 0 1022.7 1019.9 0.0
 
Date/Time
EDT
Temp
°C
App
Temp
°C
Dew
Point
°C
Rel
Hum
%
Delta-T
°C
Wind Press
QNH
hPa
Press
MSL
hPa
Rain since
9am
mm
Dir  Spd
km/h
Gust
km/h
Spd
kts
Gust
kts
23/11:30pm 11.8 12.0 10.5 92 0.7 CALM 0 0 0 0 1022.8 1020.1 0.0
23/11:00pm 12.1 11.2 10.7 91 0.8 WSW 6 9 3 5 1022.8 1020.1 0.0
23/10:30pm 12.4 11.4 11.0 91 0.8 WSW 7 9 4 5 1022.8 1020.1 0.0
23/10:00pm 12.9 11.9 11.1 89 1.0 SW 7 9 4 5 1022.8 1020.1 0.0
23/09:30pm 13.8 12.9 11.5 86 1.3 SSW 7 9 4 5 1022.5 1019.8 0.0
23/09:00pm 14.2 13.3 11.5 84 1.5 SW 7 9 4 5 1022.0 1019.3 0.0
23/08:30pm 15.4 14.3 12.0 80 1.9 SSW 9 17 5 9 1021.5 1018.7 0.0
23/08:00pm 16.5 15.1 12.3 76 2.4 SSW 11 17 6 9 1021.0 1018.3 0.0
23/07:30pm 17.9 16.6 12.6 71 3.1 S 11 17 6 9 1020.6 1017.9 0.0
23/07:00pm 19.3 17.7 12.8 66 3.8 S 13 20 7 11 1020.2 1017.4 0.0
23/06:30pm 20.3 18.7 12.8 62 4.4 S 13 22 7 12 1019.6 1016.9 0.0
23/06:00pm 21.4 19.3 12.5 57 5.2 SSW 15 26 8 14 1019.2 1016.5 0.0
23/05:30pm 22.5 20.8 12.4 52 5.9 SSW 13 20 7 11 1018.9 1016.1 0.0
23/05:00pm 23.3 21.3 12.6 51 6.3 S 15 24 8 13 1018.6 1015.8 0.0
23/04:30pm 24.4 21.9 12.4 47 7.1 S 17 24 9 13 1018.1 1015.4 0.0
23/04:00pm 25.2 22.7 12.4 45 7.6 S 17 24 9 13 1018.1 1015.4 0.0
23/03:30pm 26.0 23.8 12.1 42 8.3 S 15 22 8 12 1017.8 1015.0 0.0
23/03:00pm 26.5 23.6 12.2 41 8.5 SSW 19 30 10 16 1017.7 1014.9 0.0
23/02:30pm 27.7 24.6 11.7 37 9.5 SSE 19 28 10 15 1017.5 1014.7 0.0
23/02:00pm 31.0 27.0 6.8 22 13.5 W 17 37 9 20 1017.4 1014.6 0.0
23/01:30pm 31.7 26.2 1.9 15 15.4 NW 20 37 11 20 1017.4 1014.6 0.0
23/01:00pm 31.8 25.9 3.8 17 14.9 NW 24 35 13 19 1017.6 1014.8 0.0
23/12:33pm 30.9 24.2 1.3 15 15.1 WNW 26 46 14 25 1017.6 1014.8 0.0
23/12:30pm 31.1 24.9 2.3 16 14.9 WNW 24 39 13 21 1017.8 1015.0 0.0
23/12:00pm 30.6 24.4 1.9 16 14.7 NW 24 43 13 23 1017.8 1015.0 0.0

Other Formats:

Comma delimited format used in spreadsheet applications
http://www.bom.gov.au/fwo/IDV60801/IDV60801.94913.axf

JavaScript Object Notation format (JSON) in row-major order
http://www.bom.gov.au/fwo/IDV60801/IDV60801.94913.json